createdAt,value
2022-09-28T00:02:16.026Z,98848.72
2022-09-28T00:05:01.969Z,98845.28
2022-09-28T00:07:46.858Z,98841.88
2022-09-28T00:10:31.681Z,98837.56
2022-09-28T00:13:16.475Z,98837.56
2022-09-28T00:16:07.813Z,98839.25
2022-09-28T00:18:54.179Z,98835.81
2022-09-28T00:21:41.447Z,98830.69
2022-09-28T00:24:27.822Z,98822.97
2022-09-28T00:27:13.246Z,98810.94
2022-09-28T00:29:58.940Z,98809.22
2022-09-28T00:32:44.316Z,98810.06
2022-09-28T00:35:29.568Z,98805.78
2022-09-28T00:38:14.355Z,98792.03
2022-09-28T00:40:59.977Z,98786.88
2022-09-28T00:43:45.321Z,98786.88
2022-09-28T00:46:35.303Z,98783.44
2022-09-28T00:49:27.595Z,98778.34
2022-09-28T00:52:17.804Z,98772.31
2022-09-28T00:55:06.765Z,98768.88
2022-09-28T00:57:56.910Z,98769.72
2022-09-28T01:00:42.849Z,98760.31
2022-09-28T01:03:28.397Z,98755.19
2022-09-28T01:06:19.271Z,98754.31
2022-09-28T01:09:08.475Z,98787.84
2022-09-28T01:11:53.402Z,98782.72
2022-09-28T01:14:40.608Z,98774.16
2022-09-28T01:17:36.333Z,98777.56
2022-09-28T01:20:29.382Z,98765.59
2022-09-28T01:23:23.636Z,98768.13
2022-09-28T01:26:20.582Z,98760.41
2022-09-28T01:29:44.166Z,98764.69
2022-09-28T01:32:34.996Z,98766.41
2022-09-28T01:35:28.796Z,98763.00
2022-09-28T01:38:25.214Z,98765.56
2022-09-28T01:41:12.201Z,98766.41
2022-09-28T01:44:00.682Z,98763.84
2022-09-28T01:46:49.160Z,98762.97
2022-09-28T01:49:39.142Z,98770.69
2022-09-28T01:52:30.263Z,98763.00
2022-09-28T01:55:49.826Z,98763.84
2022-09-28T01:58:50.673Z,98763.00
2022-09-28T02:01:43.632Z,98757.00
2022-09-28T02:04:47.197Z,98762.16
2022-09-28T02:07:38.557Z,98750.16
2022-09-28T02:10:30.004Z,98751.88
2022-09-28T02:13:20.766Z,98748.41
2022-09-28T02:16:09.032Z,98750.13
2022-09-28T02:18:54.582Z,98742.44
2022-09-28T02:21:45.920Z,98746.72
2022-09-28T02:24:52.906Z,98747.56
2022-09-28T02:27:45.020Z,98746.75
2022-09-28T02:30:31.651Z,98744.16
2022-09-28T02:33:22.066Z,98748.44
2022-09-28T02:36:07.517Z,98748.44
2022-09-28T02:38:53.404Z,98747.56
2022-09-28T02:41:59.632Z,98747.56
2022-09-28T02:44:44.632Z,98749.28
2022-09-28T02:47:48.998Z,98750.13
2022-09-28T02:50:34.198Z,98754.41
2022-09-28T02:53:34.556Z,98762.09
2022-09-28T02:56:35.855Z,98765.53
2022-09-28T02:59:39.106Z,98769.81
2022-09-28T03:02:49.167Z,98765.53
2022-09-28T03:05:46.956Z,98773.25
2022-09-28T03:08:44.780Z,98766.41
2022-09-28T03:11:36.140Z,98763.84
2022-09-28T03:14:22.200Z,98766.38
2022-09-28T03:17:07.376Z,98764.66
2022-09-28T03:19:52.298Z,98761.19
2022-09-28T03:22:38.045Z,98773.16
2022-09-28T03:25:23.066Z,98778.31
2022-09-28T03:28:08.111Z,98768.91
2022-09-28T03:30:53.015Z,98768.97
2022-09-28T03:33:37.757Z,98763.84
2022-09-28T03:36:22.722Z,98762.16
2022-09-28T03:39:08.051Z,98763.84
2022-09-28T03:41:53.085Z,98764.72
2022-09-28T03:44:37.972Z,98766.41
2022-09-28T03:47:22.900Z,98763.84
2022-09-28T03:50:08.258Z,98764.63
2022-09-28T03:52:53.718Z,98756.91
2022-09-28T03:55:38.579Z,98756.06
2022-09-28T03:58:23.749Z,98754.34
2022-09-28T04:01:16.604Z,98760.34
2022-09-28T04:04:02.585Z,98761.22
2022-09-28T04:06:47.830Z,98761.22
2022-09-28T04:09:32.613Z,98764.59
2022-09-28T04:12:17.465Z,98762.91
2022-09-28T04:15:02.638Z,98762.03
2022-09-28T04:17:47.798Z,98764.66
2022-09-28T04:20:32.713Z,98768.06
2022-09-28T04:23:17.621Z,98763.78
2022-09-28T04:26:04.198Z,98764.63
2022-09-28T04:28:50.470Z,98763.75
2022-09-28T04:31:45.794Z,98768.91
2022-09-28T04:34:35.736Z,98774.09
2022-09-28T04:37:22.487Z,98771.50
2022-09-28T04:40:08.169Z,98772.38
2022-09-28T04:42:57.333Z,98768.97
2022-09-28T04:45:42.269Z,98767.25
2022-09-28T04:48:28.132Z,98769.00
2022-09-28T04:51:13.113Z,98771.53
2022-09-28T04:53:59.006Z,98774.13
2022-09-28T04:56:44.211Z,98771.56
2022-09-28T04:59:29.698Z,98773.25
2022-09-28T05:02:14.785Z,98777.56
2022-09-28T05:05:00.010Z,98759.56
2022-09-28T05:07:44.929Z,98775.00
2022-09-28T05:10:29.894Z,98779.28
2022-09-28T05:13:15.578Z,98772.44
2022-09-28T05:16:05.261Z,98781.00
2022-09-28T05:18:55.403Z,98782.72
2022-09-28T05:21:44.310Z,98784.41
2022-09-28T05:24:29.357Z,98788.72
2022-09-28T05:27:14.507Z,98787.88
2022-09-28T05:29:59.661Z,98787.88
2022-09-28T05:32:44.662Z,98797.28
2022-09-28T05:35:30.444Z,98784.41
2022-09-28T05:38:15.645Z,98785.28
2022-09-28T05:41:05.712Z,98781.00
2022-09-28T05:43:52.057Z,98783.59
2022-09-28T05:46:37.065Z,98786.13
2022-09-28T05:49:21.989Z,98786.13
2022-09-28T05:52:06.997Z,98789.59
2022-09-28T05:54:51.951Z,98781.88
2022-09-28T05:57:37.353Z,98786.16
2022-09-28T06:00:22.342Z,98789.59
2022-09-28T06:03:11.621Z,98786.16
2022-09-28T06:05:57.078Z,98787.00
2022-09-28T06:08:42.509Z,98793.88
2022-09-28T06:11:27.976Z,98789.59
2022-09-28T06:14:13.289Z,98792.16
2022-09-28T06:16:58.787Z,98795.59
2022-09-28T06:19:44.260Z,98794.72
2022-09-28T06:22:29.221Z,98797.31
2022-09-28T06:25:14.614Z,98793.88
2022-09-28T06:28:02.085Z,98799.88
2022-09-28T06:30:47.361Z,98795.56
2022-09-28T06:33:32.748Z,98799.03
2022-09-28T06:36:18.708Z,98811.88
2022-09-28T06:39:04.126Z,98812.72
2022-09-28T06:41:49.086Z,98818.75
2022-09-28T06:44:34.141Z,98819.59
2022-09-28T06:47:18.945Z,98819.56
2022-09-28T06:50:05.409Z,98818.72
2022-09-28T06:52:54.532Z,98822.16
2022-09-28T06:55:41.443Z,98829.00
2022-09-28T06:58:26.117Z,98823.88
2022-09-28T07:01:11.130Z,98823.91
2022-09-28T07:03:56.379Z,98822.16
2022-09-28T07:06:46.921Z,98827.31
2022-09-28T07:09:33.562Z,98827.31
2022-09-28T07:12:20.317Z,98823.88
2022-09-28T07:15:06.626Z,98828.19
2022-09-28T07:18:02.061Z,98837.59
2022-09-28T07:20:54.190Z,98839.31
2022-09-28T07:23:51.847Z,98840.19
2022-09-28T07:26:39.101Z,98847.03
2022-09-28T07:29:23.997Z,98850.44
2022-09-28T07:32:09.666Z,98853.88
2022-09-28T07:34:58.755Z,98847.00
2022-09-28T07:37:44.199Z,98855.56
2022-09-28T07:40:31.247Z,98852.94
2022-09-28T07:43:18.051Z,98847.78
2022-09-28T07:46:03.724Z,98852.97
2022-09-28T07:48:49.183Z,98853.78
2022-09-28T07:51:34.652Z,98859.81
2022-09-28T07:54:20.129Z,98865.81
2022-09-28T07:57:06.234Z,98856.38
2022-09-28T07:59:51.237Z,98860.69
2022-09-28T08:02:37.419Z,98868.38
2022-09-28T08:05:22.848Z,98870.13
2022-09-28T08:08:07.839Z,98870.09
2022-09-28T08:10:53.163Z,98868.38
2022-09-28T08:13:38.378Z,98870.06
2022-09-28T08:16:24.220Z,98868.38
2022-09-28T08:19:09.647Z,98872.69
2022-09-28T08:21:55.311Z,98881.25
2022-09-28T08:24:40.489Z,98882.09
2022-09-28T08:27:25.755Z,98888.03
2022-09-28T08:30:11.485Z,98886.28
2022-09-28T08:32:57.272Z,98881.09
2022-09-28T08:35:42.456Z,98883.72
2022-09-28T08:38:29.199Z,98886.25
2022-09-28T08:41:14.184Z,98890.53
2022-09-28T08:44:08.173Z,98893.09
2022-09-28T08:47:00.942Z,98893.97
2022-09-28T08:49:48.716Z,98902.66
2022-09-28T08:53:02.637Z,98900.03
2022-09-28T08:55:48.302Z,98905.22
2022-09-28T08:58:39.679Z,98913.00
2022-09-28T09:01:28.489Z,98918.22
2022-09-28T09:04:13.863Z,98933.63
2022-09-28T09:07:27.185Z,98930.19
2022-09-28T09:10:49.348Z,98933.59
2022-09-28T09:14:04.006Z,98936.19
2022-09-28T09:17:17.017Z,98936.97
2022-09-28T09:20:37.245Z,98936.09
2022-09-28T09:23:31.172Z,98944.72
2022-09-28T09:26:25.422Z,98935.25
2022-09-28T09:29:49.210Z,98936.09
2022-09-28T09:32:43.684Z,98942.94
2022-09-28T09:35:41.169Z,98933.41
2022-09-28T09:39:03.932Z,98936.84
2022-09-28T09:42:24.682Z,98936.06
2022-09-28T09:45:34.336Z,98941.09
2022-09-28T09:48:23.238Z,98935.97
2022-09-28T09:51:22.101Z,98942.75
2022-09-28T09:54:18.444Z,98931.41
2022-09-28T09:57:12.982Z,98938.25
2022-09-28T10:00:01.699Z,98938.91
2022-09-28T10:02:49.550Z,98932.81
2022-09-28T10:05:35.805Z,98943.19
2022-09-28T10:08:23.604Z,98938.75
2022-09-28T10:11:15.323Z,98935.28
2022-09-28T10:14:00.183Z,98926.63
2022-09-28T10:16:46.461Z,98928.38
2022-09-28T10:19:34.725Z,98931.22
2022-09-28T10:22:23.747Z,98933.75
2022-09-28T10:25:10.272Z,98937.34
2022-09-28T10:27:57.552Z,98941.56
2022-09-28T10:30:43.136Z,98940.56
2022-09-28T10:33:33.857Z,98947.56
2022-09-28T10:36:19.183Z,98946.13
2022-09-28T10:39:05.894Z,98976.50
2022-09-28T10:41:51.571Z,98983.41
2022-09-28T10:44:52.515Z,98990.25
2022-09-28T10:47:38.037Z,98989.31
2022-09-28T10:50:26.460Z,98984.13
2022-09-28T10:53:18.590Z,98985.75
2022-09-28T10:56:07.157Z,98985.66
2022-09-28T10:58:52.343Z,98983.06
2022-09-28T11:01:37.104Z,98977.81
2022-09-28T11:04:27.730Z,98982.03
2022-09-28T11:07:22.368Z,98965.75
2022-09-28T11:10:21.347Z,98963.94
2022-09-28T11:13:09.499Z,98965.56
2022-09-28T11:15:54.340Z,98957.94
2022-09-28T11:18:39.262Z,98958.81
2022-09-28T11:21:30.042Z,98958.69
2022-09-28T11:24:18.912Z,98966.34
2022-09-28T11:27:04.664Z,98966.28
2022-09-28T11:29:57.830Z,98959.47
2022-09-28T11:32:45.237Z,98960.19
2022-09-28T11:35:55.000Z,98953.38
2022-09-28T11:39:06.821Z,98955.19
2022-09-28T11:42:16.133Z,98952.56
2022-09-28T11:45:23.314Z,98969.84
2022-09-28T11:48:13.073Z,98970.81
2022-09-28T11:51:15.416Z,98977.00
2022-09-28T11:54:17.924Z,98984.75
2022-09-28T11:57:06.316Z,98989.88
2022-09-28T11:59:59.809Z,98979.38
2022-09-28T12:02:54.680Z,98979.31
2022-09-28T12:05:57.946Z,98969.38
2022-09-28T12:08:48.945Z,98950.50
2022-09-28T12:11:39.036Z,98948.66
2022-09-28T12:14:31.056Z,98933.16
2022-09-28T12:17:25.169Z,98960.50
2022-09-28T12:20:16.701Z,98956.88
2022-09-28T12:23:17.676Z,98983.34
2022-09-28T12:26:10.725Z,98958.88
2022-09-28T12:29:00.937Z,98916.22
2022-09-28T12:32:02.742Z,98953.97
2022-09-28T12:34:48.315Z,98953.66
2022-09-28T12:37:54.689Z,98942.63
2022-09-28T12:40:51.363Z,98920.94
2022-09-28T12:43:58.694Z,98939.81
2022-09-28T12:47:06.750Z,98933.53
2022-09-28T12:50:47.506Z,98903.50
2022-09-28T12:53:53.171Z,98921.69
2022-09-28T12:56:49.727Z,98954.56
2022-09-28T12:59:49.949Z,98966.47
2022-09-28T13:02:50.193Z,98939.09
2022-09-28T13:06:12.206Z,98972.91
2022-09-28T13:09:20.857Z,98994.75
2022-09-28T13:12:31.251Z,99004.13
2022-09-28T13:15:35.763Z,98995.19
2022-09-28T13:18:55.904Z,99021.75
2022-09-28T13:22:02.067Z,98977.81
2022-09-28T13:24:48.704Z,98989.00
2022-09-28T13:27:42.032Z,98979.66
2022-09-28T13:30:27.181Z,98995.00
2022-09-28T13:33:23.037Z,99001.09
2022-09-28T13:36:30.180Z,98989.00
2022-09-28T13:39:46.251Z,98991.50
2022-09-28T13:42:46.712Z,98981.84
2022-09-28T13:45:51.522Z,98965.44
2022-09-28T13:49:05.797Z,98959.41
2022-09-28T13:51:59.897Z,98966.97
2022-09-28T13:54:58.113Z,98957.47
2022-09-28T13:57:49.932Z,98955.59
2022-09-28T14:00:46.368Z,98967.53
2022-09-28T14:04:03.274Z,98924.47
2022-09-28T14:07:15.189Z,98946.78
2022-09-28T14:10:34.357Z,98951.81
2022-09-28T14:13:41.405Z,98982.78
2022-09-28T14:16:31.261Z,98987.84
2022-09-28T14:19:25.934Z,98960.31
2022-09-28T14:22:17.037Z,98993.97
2022-09-28T14:25:01.796Z,98972.25
2022-09-28T14:27:53.459Z,98971.59
2022-09-28T14:30:41.969Z,98972.34
2022-09-28T14:33:32.846Z,98948.28
2022-09-28T14:36:35.003Z,98979.97
2022-09-28T14:39:31.067Z,98955.72
2022-09-28T14:42:20.448Z,98977.28
2022-09-28T14:45:07.345Z,99000.78
2022-09-28T14:48:13.676Z,98981.13
2022-09-28T14:51:24.849Z,98949.03
2022-09-28T14:54:10.085Z,98976.59
2022-09-28T14:57:14.953Z,98952.28
2022-09-28T15:00:07.326Z,98979.19
2022-09-28T15:02:56.075Z,99003.47
2022-09-28T15:05:46.053Z,99016.38
2022-09-28T15:08:39.293Z,99000.94
2022-09-28T15:11:26.277Z,98998.97
2022-09-28T15:14:11.459Z,98977.44
2022-09-28T15:16:58.202Z,98982.72
2022-09-28T15:19:58.421Z,98987.09
2022-09-28T15:22:49.000Z,98981.47
2022-09-28T15:25:34.375Z,98947.66
2022-09-28T15:28:22.201Z,98960.59
2022-09-28T15:31:16.505Z,98967.69
2022-09-28T15:34:01.901Z,98992.25
2022-09-28T15:36:47.512Z,99032.09
2022-09-28T15:39:34.080Z,99017.34
2022-09-28T15:42:20.189Z,99022.72
2022-09-28T15:45:22.987Z,99003.72
2022-09-28T15:48:29.352Z,99036.63
2022-09-28T15:51:14.613Z,99062.59
2022-09-28T15:54:14.823Z,99057.47
2022-09-28T15:57:02.738Z,99057.63
2022-09-28T15:59:54.392Z,99051.59
2022-09-28T16:03:16.228Z,99051.44
2022-09-28T16:06:06.303Z,99050.47
2022-09-28T16:08:51.408Z,99060.75
2022-09-28T16:11:39.586Z,99043.16
2022-09-28T16:14:26.685Z,99002.91
2022-09-28T16:17:24.743Z,98920.34
2022-09-28T16:20:27.681Z,98958.56
2022-09-28T16:23:32.348Z,99013.97
2022-09-28T16:26:29.949Z,99047.19
2022-09-28T16:29:35.302Z,99056.03
2022-09-28T16:32:23.719Z,99056.06
2022-09-28T16:35:20.661Z,99054.41
2022-09-28T16:38:11.877Z,99058.81
2022-09-28T16:40:57.144Z,99058.13
2022-09-28T16:43:42.575Z,99066.19
2022-09-28T16:46:35.304Z,99085.22
2022-09-28T16:49:22.672Z,99101.88
2022-09-28T16:52:14.137Z,99101.97
2022-09-28T16:54:59.301Z,99091.69
2022-09-28T16:57:46.837Z,99092.56
2022-09-28T17:00:32.523Z,99097.09
2022-09-28T17:03:18.237Z,99123.97
2022-09-28T17:06:04.797Z,99131.91
2022-09-28T17:08:49.908Z,99135.34
2022-09-28T17:11:35.290Z,99132.78
2022-09-28T17:14:20.146Z,99137.97
2022-09-28T17:17:11.582Z,99138.81
2022-09-28T17:20:01.400Z,99138.81
2022-09-28T17:22:46.669Z,99137.13
2022-09-28T17:25:31.653Z,99124.25
2022-09-28T17:28:16.440Z,99120.81
2022-09-28T17:31:03.980Z,99128.53
2022-09-28T17:33:49.288Z,99132.91
2022-09-28T17:36:34.308Z,99144.09
2022-09-28T17:39:19.241Z,99147.50
2022-09-28T17:42:04.456Z,99141.47
2022-09-28T17:44:49.749Z,99152.69
2022-09-28T17:47:34.617Z,99150.97
2022-09-28T17:50:24.488Z,99158.72
2022-09-28T17:53:10.189Z,99150.13
2022-09-28T17:55:55.251Z,99159.59
2022-09-28T17:58:41.562Z,99161.31
2022-09-28T18:01:27.036Z,99159.56
2022-09-28T18:04:33.331Z,99166.47
2022-09-28T18:07:20.429Z,99173.31
2022-09-28T18:10:07.014Z,99167.31
2022-09-28T18:12:52.066Z,99166.44
2022-09-28T18:15:37.085Z,99171.63
2022-09-28T18:18:24.106Z,99166.47
2022-09-28T18:21:11.808Z,99175.06
2022-09-28T18:23:57.132Z,99181.06
2022-09-28T18:26:42.099Z,99177.63
2022-09-28T18:29:31.029Z,99175.91
2022-09-28T18:32:18.079Z,99175.91
2022-09-28T18:35:08.394Z,99173.34
2022-09-28T18:37:53.634Z,99176.78
2022-09-28T18:40:38.761Z,99176.78
2022-09-28T18:43:24.131Z,99182.81
2022-09-28T18:46:10.994Z,99199.13
2022-09-28T18:48:56.172Z,99190.50
2022-09-28T18:51:41.408Z,99183.63
2022-09-28T18:54:26.307Z,99190.53
2022-09-28T18:57:11.141Z,99188.81
2022-09-28T18:59:55.979Z,99187.09
2022-09-28T19:02:41.436Z,99189.66
2022-09-28T19:05:26.579Z,99196.53
2022-09-28T19:08:11.637Z,99205.09
2022-09-28T19:11:10.532Z,99195.63
2022-09-28T19:13:55.640Z,99187.06
2022-09-28T19:16:40.890Z,99192.22
2022-09-28T19:19:26.040Z,99193.06
2022-09-28T19:22:12.308Z,99192.16
2022-09-28T19:24:58.421Z,99191.28
2022-09-28T19:27:43.495Z,99194.78
2022-09-28T19:30:28.444Z,99195.59
2022-09-28T19:33:13.562Z,99198.16
2022-09-28T19:36:14.226Z,99200.75
2022-09-28T19:39:00.542Z,99200.72
2022-09-28T19:41:45.856Z,99199.03
2022-09-28T19:44:32.905Z,99203.31
2022-09-28T19:47:18.319Z,99209.31
2022-09-28T19:50:03.317Z,99206.75
2022-09-28T19:52:48.845Z,99218.84
2022-09-28T19:55:34.000Z,99211.91
2022-09-28T19:58:19.894Z,99211.91
2022-09-28T20:01:06.278Z,99215.34
2022-09-28T20:03:51.465Z,99218.81
2022-09-28T20:06:37.663Z,99222.22
2022-09-28T20:09:22.749Z,99223.94
2022-09-28T20:12:08.067Z,99227.34
2022-09-28T20:14:53.021Z,99232.50
2022-09-28T20:17:37.768Z,99227.38
2022-09-28T20:20:22.820Z,99224.78
2022-09-28T20:23:11.397Z,99232.47
2022-09-28T20:25:58.115Z,99231.63
2022-09-28T20:28:43.482Z,99237.63
2022-09-28T20:31:28.844Z,99239.34
2022-09-28T20:34:14.173Z,99235.94
2022-09-28T20:36:59.752Z,99241.03
2022-09-28T20:39:45.286Z,99241.94
2022-09-28T20:42:30.715Z,99239.34
2022-09-28T20:45:16.214Z,99235.88
2022-09-28T20:48:03.121Z,99238.44
2022-09-28T20:50:48.347Z,99241.00
2022-09-28T20:53:33.925Z,99244.44
2022-09-28T20:56:28.115Z,99243.59
2022-09-28T20:59:13.073Z,99240.13
2022-09-28T21:01:58.083Z,99240.16
2022-09-28T21:04:44.101Z,99249.59
2022-09-28T21:07:29.453Z,99243.63
2022-09-28T21:10:14.498Z,99253.94
2022-09-28T21:12:59.634Z,99253.06
2022-09-28T21:15:45.173Z,99250.50
2022-09-28T21:18:30.923Z,99240.19
2022-09-28T21:21:18.082Z,99242.75
2022-09-28T21:24:03.640Z,99255.63
2022-09-28T21:26:48.835Z,99255.63
2022-09-28T21:29:33.816Z,99260.78
2022-09-28T21:32:19.274Z,99258.19
2022-09-28T21:35:05.051Z,99259.03
2022-09-28T21:37:49.960Z,99267.63
2022-09-28T21:40:35.167Z,99267.59
2022-09-28T21:43:20.615Z,99265.09
2022-09-28T21:46:05.752Z,99268.56
2022-09-28T21:48:52.266Z,99258.22
2022-09-28T21:51:37.427Z,99262.47
2022-09-28T21:54:22.401Z,99269.34
2022-09-28T21:57:08.005Z,99270.19
2022-09-28T21:59:53.262Z,99275.34
2022-09-28T22:02:38.541Z,99276.22
2022-09-28T22:05:24.107Z,99280.50
2022-09-28T22:08:09.784Z,99289.91
2022-09-28T22:11:08.969Z,99290.78
2022-09-28T22:13:59.249Z,99291.66
2022-09-28T22:16:44.278Z,99291.69
2022-09-28T22:19:29.149Z,99296.00
2022-09-28T22:22:14.337Z,99288.31
2022-09-28T22:24:59.526Z,99297.72
2022-09-28T22:27:44.770Z,99298.56
2022-09-28T22:30:30.762Z,99290.81
2022-09-28T22:33:15.728Z,99291.78
2022-09-28T22:36:01.139Z,99298.66
2022-09-28T22:38:47.240Z,99297.88
2022-09-28T22:41:32.854Z,99301.31
2022-09-28T22:44:18.886Z,99299.59
2022-09-28T22:47:04.225Z,99299.59
2022-09-28T22:49:49.090Z,99295.34
2022-09-28T22:52:34.314Z,99304.78
2022-09-28T22:55:19.313Z,99300.41
2022-09-28T22:58:04.244Z,99299.53
2022-09-28T23:00:49.433Z,99299.53
2022-09-28T23:03:34.492Z,99307.25
2022-09-28T23:06:22.060Z,99307.34
2022-09-28T23:09:07.135Z,99308.19
2022-09-28T23:11:52.111Z,99305.56
2022-09-28T23:14:37.009Z,99305.59
2022-09-28T23:17:22.019Z,99307.38
2022-09-28T23:20:07.562Z,99298.66
2022-09-28T23:22:52.511Z,99302.09
2022-09-28T23:25:37.306Z,99303.88
2022-09-28T23:28:24.361Z,99303.78
2022-09-28T23:31:12.383Z,99314.06
2022-09-28T23:33:59.226Z,99312.38
2022-09-28T23:36:44.432Z,99316.66
2022-09-28T23:39:29.589Z,99307.22
2022-09-28T23:42:14.457Z,99306.31
2022-09-28T23:44:59.433Z,99311.44
2022-09-28T23:47:44.324Z,99308.00
2022-09-28T23:50:29.556Z,99314.81
2022-09-28T23:53:15.231Z,99319.94
2022-09-28T23:56:01.121Z,99318.19
2022-09-28T23:58:46.406Z,99315.66
